createdAt,value
2022-12-18T00:02:35.622Z,-2.60
2022-12-18T00:06:37.258Z,-2.30
2022-12-18T00:10:38.185Z,-2.40
2022-12-18T00:14:39.275Z,-2.90
2022-12-18T00:18:43.191Z,-3.40
2022-12-18T00:22:44.367Z,-2.50
2022-12-18T00:26:45.519Z,-2.70
2022-12-18T00:30:46.780Z,-2.00
2022-12-18T00:34:47.866Z,-2.40
2022-12-18T00:38:48.830Z,-2.60
2022-12-18T00:42:56.146Z,-2.60
2022-12-18T00:46:57.036Z,-2.20
2022-12-18T00:50:58.345Z,-3.20
2022-12-18T00:55:04.494Z,-2.60
2022-12-18T00:59:02.222Z,-3.00
2022-12-18T01:03:04.361Z,-2.90
2022-12-18T01:07:05.618Z,-2.60
2022-12-18T01:11:12.688Z,-2.40
2022-12-18T01:15:14.959Z,-2.20
2022-12-18T01:19:16.358Z,-2.40
2022-12-18T01:23:18.407Z,-2.70
2022-12-18T01:27:19.489Z,-2.50
2022-12-18T01:31:23.421Z,-2.50
2022-12-18T01:35:24.567Z,-2.50
2022-12-18T01:39:25.644Z,-2.50
2022-12-18T01:43:46.802Z,-2.30
2022-12-18T01:47:54.890Z,-2.40
2022-12-18T01:51:55.849Z,-2.50
2022-12-18T01:55:58.070Z,-3.20
2022-12-18T02:00:06.075Z,-3.10
2022-12-18T02:04:26.076Z,-3.40
2022-12-18T02:08:33.704Z,-3.40
2022-12-18T02:12:38.493Z,-3.30
2022-12-18T02:16:43.407Z,-3.30
2022-12-18T02:20:48.265Z,-2.70
2022-12-18T02:25:04.785Z,-2.60
2022-12-18T02:29:12.515Z,-3.90
2022-12-18T02:33:14.655Z,-4.00
2022-12-18T02:37:18.657Z,-3.80
2022-12-18T02:41:20.246Z,-3.60
2022-12-18T02:45:21.371Z,-3.60
2022-12-18T02:49:44.094Z,-3.20
2022-12-18T02:54:05.554Z,-3.00
2022-12-18T02:58:13.170Z,-2.80
2022-12-18T03:02:24.325Z,-3.50
2022-12-18T03:06:29.142Z,-3.20
2022-12-18T03:10:33.790Z,-2.70
2022-12-18T03:14:36.791Z,-2.70
2022-12-18T03:18:44.790Z,-2.70
2022-12-18T03:22:49.523Z,-2.80
2022-12-18T03:26:57.462Z,-2.70
2022-12-18T03:31:01.537Z,-3.10
2022-12-18T03:35:05.495Z,-3.00
2022-12-18T03:39:06.765Z,-3.60
2022-12-18T03:43:11.682Z,-3.90
2022-12-18T03:47:31.692Z,-3.90
2022-12-18T03:51:51.393Z,-4.30
2022-12-18T03:55:53.412Z,-4.30
2022-12-18T04:00:01.501Z,-4.70
2022-12-18T04:04:04.177Z,-3.90
2022-12-18T04:08:05.757Z,-3.20
2022-12-18T04:12:06.954Z,-3.50
2022-12-18T04:16:09.835Z,-3.30
2022-12-18T04:20:11.706Z,-3.30
2022-12-18T04:24:12.862Z,-2.90
2022-12-18T04:28:17.972Z,-3.30
2022-12-18T04:32:21.760Z,-4.10
2022-12-18T04:36:22.905Z,-4.00
2022-12-18T04:40:26.025Z,-4.00
2022-12-18T04:44:27.154Z,-4.20
2022-12-18T04:48:29.099Z,-4.20
2022-12-18T04:52:33.079Z,-3.40
2022-12-18T04:56:35.063Z,-3.20
2022-12-18T05:00:36.273Z,-3.20
2022-12-18T05:04:38.322Z,-4.00
2022-12-18T05:08:39.279Z,-3.70
2022-12-18T05:12:42.334Z,-4.10
2022-12-18T05:16:43.333Z,-3.80
2022-12-18T05:20:45.169Z,-4.50
2022-12-18T05:24:46.312Z,-4.10
2022-12-18T05:28:47.553Z,-4.20
2022-12-18T05:32:48.516Z,-4.70
2022-12-18T05:36:49.646Z,-4.20
2022-12-18T05:40:51.764Z,-3.70
2022-12-18T05:44:52.782Z,-3.70
2022-12-18T05:48:53.909Z,-3.90
2022-12-18T05:52:54.891Z,-3.80
2022-12-18T05:56:56.143Z,-3.70
2022-12-18T06:00:58.003Z,-4.00
2022-12-18T06:04:59.009Z,-4.30
2022-12-18T06:09:01.748Z,-4.70
2022-12-18T06:13:02.903Z,-3.90
2022-12-18T06:17:04.079Z,-3.40
2022-12-18T06:21:05.353Z,-2.90
2022-12-18T06:25:07.575Z,-2.80
2022-12-18T06:29:09.190Z,-2.80
2022-12-18T06:33:10.396Z,-2.80
2022-12-18T06:37:11.640Z,-2.80
2022-12-18T06:41:15.508Z,-2.80
2022-12-18T06:45:16.826Z,-2.90
2022-12-18T06:49:20.366Z,-2.90
2022-12-18T06:53:21.694Z,-3.30
2022-12-18T06:57:22.675Z,-3.10
2022-12-18T07:01:24.023Z,-2.90
2022-12-18T07:05:25.308Z,-3.70
2022-12-18T07:09:26.514Z,-2.90
2022-12-18T07:13:27.907Z,-2.80
2022-12-18T07:17:30.090Z,-2.60
2022-12-18T07:21:31.293Z,-2.70
2022-12-18T07:25:36.364Z,-3.40
2022-12-18T07:29:37.551Z,-3.70
2022-12-18T07:33:39.460Z,-2.90
2022-12-18T07:37:40.868Z,-2.00
2022-12-18T07:41:47.371Z,-2.90
2022-12-18T07:45:51.053Z,-3.10
2022-12-18T07:49:52.406Z,-2.30
2022-12-18T07:53:53.528Z,-3.00
2022-12-18T07:57:59.372Z,-3.10
2022-12-18T08:01:57.769Z,-3.40
2022-12-18T08:06:03.541Z,-2.70
2022-12-18T08:10:05.293Z,-3.90
2022-12-18T08:14:08.955Z,-2.40
2022-12-18T08:18:14.401Z,-2.10
2022-12-18T08:22:14.715Z,-2.30
2022-12-18T08:26:16.507Z,-2.00
2022-12-18T08:30:17.548Z,-1.70
2022-12-18T08:34:18.939Z,-1.60
2022-12-18T08:38:19.876Z,-2.40
2022-12-18T08:42:39.132Z,-2.50
2022-12-18T08:46:42.208Z,-2.70
2022-12-18T08:50:43.347Z,-3.10
2022-12-18T08:54:44.485Z,-2.80
2022-12-18T08:58:45.651Z,-1.70
2022-12-18T09:02:47.028Z,-2.50
2022-12-18T09:06:48.385Z,-1.60
2022-12-18T09:10:50.828Z,-2.00
2022-12-18T09:14:52.082Z,-2.50
2022-12-18T09:18:55.176Z,-2.20
2022-12-18T09:22:56.331Z,-2.50
2022-12-18T09:26:58.175Z,-2.00
2022-12-18T09:30:59.516Z,-2.70
2022-12-18T09:35:02.689Z,-2.00
2022-12-18T09:39:08.273Z,-2.40
2022-12-18T09:43:09.693Z,-3.20
2022-12-18T09:47:17.249Z,-2.70
2022-12-18T09:51:22.167Z,-2.00
2022-12-18T09:55:37.628Z,-2.50
2022-12-18T09:59:42.654Z,-3.70
2022-12-18T10:03:43.708Z,-4.20
2022-12-18T10:07:54.670Z,-2.70
2022-12-18T10:12:11.912Z,-2.80
2022-12-18T10:16:22.535Z,-2.20
2022-12-18T10:20:27.511Z,-2.50
2022-12-18T10:24:35.623Z,-2.10
2022-12-18T10:28:39.524Z,-2.40
2022-12-18T10:32:41.043Z,-3.00
2022-12-18T10:36:43.364Z,-4.40
2022-12-18T10:40:58.477Z,-4.40
2022-12-18T10:45:09.087Z,-3.20
2022-12-18T10:49:32.025Z,-3.40
2022-12-18T10:53:36.527Z,-4.00
2022-12-18T10:57:41.027Z,-4.10
2022-12-18T11:02:00.114Z,-4.10
2022-12-18T11:06:10.931Z,-3.90
2022-12-18T11:10:15.741Z,-2.10
2022-12-18T11:14:26.208Z,-2.30
2022-12-18T11:18:30.939Z,-2.00
2022-12-18T11:22:35.338Z,-4.50
2022-12-18T11:26:37.435Z,-3.90
2022-12-18T11:30:38.408Z,-3.70
2022-12-18T11:34:42.498Z,-4.10
2022-12-18T11:38:45.152Z,-2.70
2022-12-18T11:42:52.663Z,-2.50
2022-12-18T11:46:57.754Z,-3.70
2022-12-18T11:51:02.796Z,-3.40
2022-12-18T11:55:16.590Z,-2.80
2022-12-18T11:59:33.625Z,-3.20
2022-12-18T12:03:44.905Z,-2.80
2022-12-18T12:07:53.083Z,-2.70
2022-12-18T12:12:00.944Z,-3.50
2022-12-18T12:16:20.592Z,-3.80
2022-12-18T12:20:45.163Z,-3.40
2022-12-18T12:25:23.027Z,-3.70
2022-12-18T12:29:44.624Z,-4.20
2022-12-18T12:33:52.563Z,-3.90
2022-12-18T12:38:10.109Z,-3.70
2022-12-18T12:43:00.446Z,-4.70
2022-12-18T12:47:05.518Z,-3.60
2022-12-18T12:51:23.416Z,-3.80
2022-12-18T12:55:27.349Z,-3.50
2022-12-18T12:59:35.008Z,-3.60
2022-12-18T13:03:57.467Z,-3.60
2022-12-18T13:08:07.519Z,-3.30
2022-12-18T13:12:30.240Z,-3.80
2022-12-18T13:16:33.944Z,-4.00
2022-12-18T13:20:38.021Z,-3.20
2022-12-18T13:24:39.237Z,-3.20
2022-12-18T13:28:50.452Z,-2.90
2022-12-18T13:33:11.914Z,-2.60
2022-12-18T13:37:34.237Z,-3.00
2022-12-18T13:41:35.411Z,-2.50
2022-12-18T13:45:40.436Z,-3.80
2022-12-18T13:49:44.208Z,-2.60
2022-12-18T13:54:01.114Z,-3.10
2022-12-18T13:58:06.853Z,-3.50
2022-12-18T14:02:17.761Z,-3.60
2022-12-18T14:06:19.262Z,-3.40
2022-12-18T14:14:32.373Z,-3.20
2022-12-18T14:19:04.116Z,-3.20
2022-12-18T14:23:04.914Z,-2.80
2022-12-18T14:27:24.533Z,-2.80
2022-12-18T14:31:28.888Z,-1.70
2022-12-18T14:35:33.297Z,-2.70
2022-12-18T14:39:34.335Z,-2.60
2022-12-18T14:43:37.571Z,-1.40
2022-12-18T14:47:39.164Z,-1.80
2022-12-18T14:51:44.700Z,-2.10
2022-12-18T14:55:48.545Z,-3.30
2022-12-18T14:59:50.546Z,-3.30
2022-12-18T15:03:53.328Z,-4.00
2022-12-18T15:07:56.668Z,-4.20
2022-12-18T15:12:01.863Z,-3.00
2022-12-18T15:16:03.790Z,-2.70
2022-12-18T15:20:08.899Z,-2.50
2022-12-18T15:24:19.676Z,-3.20
2022-12-18T15:28:24.920Z,-2.50
2022-12-18T15:32:26.131Z,-2.40
2022-12-18T15:36:27.801Z,-2.70
2022-12-18T15:40:30.932Z,-2.20
2022-12-18T15:44:32.439Z,-2.90
2022-12-18T15:48:35.955Z,-3.40
2022-12-18T15:52:43.400Z,-2.90
2022-12-18T15:57:02.785Z,-3.10
2022-12-18T16:01:04.253Z,-3.10
2022-12-18T16:05:17.508Z,-3.30
2022-12-18T16:09:23.077Z,-2.00
2022-12-18T16:13:22.355Z,-1.70
2022-12-18T16:17:23.910Z,-1.40
2022-12-18T16:21:28.216Z,-1.90
2022-12-18T16:25:29.096Z,-1.80
2022-12-18T16:29:30.480Z,-1.90
2022-12-18T16:33:31.567Z,-1.90
2022-12-18T16:37:32.811Z,-2.10
2022-12-18T16:41:34.226Z,-1.90
2022-12-18T16:45:35.318Z,-2.80
2022-12-18T16:49:36.867Z,-2.80
2022-12-18T16:53:38.284Z,-3.30
2022-12-18T16:57:39.662Z,-3.80
2022-12-18T17:01:41.163Z,-3.00
2022-12-18T17:05:42.685Z,-2.50
2022-12-18T17:09:45.724Z,-3.20
2022-12-18T17:13:47.229Z,-3.40
2022-12-18T17:17:48.502Z,-2.80
2022-12-18T17:21:50.699Z,-3.30
2022-12-18T17:25:54.968Z,-3.40
2022-12-18T17:29:56.064Z,-2.50
2022-12-18T17:33:57.814Z,-2.70
2022-12-18T17:37:58.793Z,-3.40
2022-12-18T17:41:59.900Z,-2.60
2022-12-18T17:46:06.099Z,-2.10
2022-12-18T17:50:09.541Z,-3.00
2022-12-18T17:54:11.082Z,-3.20
2022-12-18T17:58:13.124Z,-2.80
2022-12-18T18:02:15.241Z,-3.10
2022-12-18T18:06:17.850Z,-2.90
2022-12-18T18:10:19.077Z,-2.80
2022-12-18T18:14:20.671Z,-3.20
2022-12-18T18:18:21.639Z,-2.80
2022-12-18T18:22:24.538Z,-2.40
2022-12-18T18:26:29.538Z,-3.40
2022-12-18T18:30:31.403Z,-3.40
2022-12-18T18:34:33.127Z,-2.70
2022-12-18T18:38:34.211Z,-2.30
2022-12-18T18:42:35.912Z,-3.00
2022-12-18T18:46:37.078Z,-2.80
2022-12-18T18:50:38.460Z,-2.50
2022-12-18T18:54:51.949Z,-2.70
2022-12-18T18:58:44.298Z,-2.60
2022-12-18T19:02:45.608Z,-2.70
2022-12-18T19:06:48.061Z,-2.40
2022-12-18T19:10:57.792Z,-2.60
2022-12-18T19:14:58.858Z,-2.40
2022-12-18T19:19:01.957Z,-1.80
2022-12-18T19:23:03.560Z,-2.50
2022-12-18T19:27:04.593Z,-1.90
2022-12-18T19:31:08.740Z,-2.30
2022-12-18T19:35:10.514Z,-2.00
2022-12-18T19:39:14.914Z,-3.00
2022-12-18T19:43:16.917Z,-2.70
2022-12-18T19:47:18.446Z,-1.60
2022-12-18T19:51:22.779Z,-2.10
2022-12-18T19:55:24.251Z,-2.10
2022-12-18T19:59:25.261Z,-1.80
2022-12-18T20:03:32.164Z,-2.10
2022-12-18T20:07:30.264Z,-1.80
2022-12-18T20:11:33.187Z,-1.60
2022-12-18T20:15:40.466Z,-1.30
2022-12-18T20:19:39.711Z,-1.60
2022-12-18T20:23:55.542Z,-1.50
2022-12-18T20:27:48.747Z,-2.60
2022-12-18T20:31:51.160Z,-2.50
2022-12-18T20:35:52.626Z,-2.50
2022-12-18T20:39:54.565Z,-2.40
2022-12-18T20:43:57.305Z,-1.00
2022-12-18T20:48:00.452Z,-0.30
2022-12-18T20:52:02.502Z,-1.10
2022-12-18T20:56:10.458Z,-1.10
2022-12-18T21:00:13.966Z,-1.60
2022-12-18T21:04:19.706Z,-0.60
2022-12-18T21:08:21.328Z,-0.80
2022-12-18T21:12:40.329Z,-0.40
2022-12-18T21:16:46.220Z,-0.50
2022-12-18T21:20:48.151Z,-1.10
2022-12-18T21:24:50.312Z,-2.10
2022-12-18T21:28:56.483Z,-2.30
2022-12-18T21:32:57.811Z,-1.50
2022-12-18T21:37:00.710Z,-0.90
2022-12-18T21:41:07.591Z,-1.00
2022-12-18T21:45:10.518Z,-0.50
2022-12-18T21:49:22.456Z,-0.10
2022-12-18T21:53:23.775Z,-2.10
2022-12-18T21:57:25.014Z,-1.60
2022-12-18T22:01:26.319Z,-1.60
2022-12-18T22:05:29.440Z,-1.10
2022-12-18T22:09:30.901Z,-1.60
2022-12-18T22:13:32.117Z,-0.50
2022-12-18T22:17:33.236Z,-0.40
2022-12-18T22:21:37.415Z,-1.00
2022-12-18T22:25:39.839Z,-0.90
2022-12-18T22:29:58.062Z,-1.20
2022-12-18T22:33:59.208Z,-1.90
2022-12-18T22:38:04.008Z,-0.90
2022-12-18T22:42:05.724Z,-0.90
2022-12-18T22:46:11.167Z,-2.10
2022-12-18T22:50:15.335Z,-2.20
2022-12-18T22:54:16.572Z,-0.80
2022-12-18T22:58:19.493Z,-1.30
2022-12-18T23:02:20.867Z,-0.40
2022-12-18T23:06:24.598Z,0.70
2022-12-18T23:10:25.879Z,-0.50
2022-12-18T23:14:28.009Z,0.40
2022-12-18T23:18:29.159Z,0.30
2022-12-18T23:22:30.456Z,-0.70
2022-12-18T23:26:34.602Z,-0.90
2022-12-18T23:30:36.533Z,0.60
2022-12-18T23:39:03.981Z,-0.80
2022-12-18T23:43:07.102Z,0.40
2022-12-18T23:47:08.500Z,-0.60
2022-12-18T23:51:11.358Z,-1.00
2022-12-18T23:55:12.504Z,-0.50
2022-12-18T23:59:13.967Z,-1.00
